createdAt,value
2018-12-17T00:00:02.791Z,95.60
2018-12-17T00:02:30.767Z,95.70
2018-12-17T00:04:58.681Z,95.60
2018-12-17T00:07:26.624Z,95.60
2018-12-17T00:09:54.549Z,95.60
2018-12-17T00:12:22.482Z,95.70
2018-12-17T00:14:50.429Z,95.80
2018-12-17T00:17:18.392Z,95.90
2018-12-17T00:19:46.617Z,95.80
2018-12-17T00:22:14.918Z,95.90
2018-12-17T00:24:42.825Z,96.00
2018-12-17T00:27:10.748Z,96.00
2018-12-17T00:29:39.952Z,95.90
2018-12-17T00:32:07.900Z,95.70
2018-12-17T00:34:35.838Z,95.70
2018-12-17T00:37:03.769Z,95.70
2018-12-17T00:39:31.701Z,95.70
2018-12-17T00:41:59.619Z,95.50
2018-12-17T00:44:27.588Z,95.90
2018-12-17T00:46:55.493Z,95.50
2018-12-17T00:49:23.419Z,95.40
2018-12-17T00:51:51.360Z,94.30
2018-12-17T00:54:19.337Z,93.90
2018-12-17T00:56:47.436Z,93.90
2018-12-17T00:59:15.374Z,93.70
2018-12-17T01:01:43.297Z,93.20
2018-12-17T01:04:11.244Z,93.40
2018-12-17T01:06:39.200Z,94.20
2018-12-17T01:09:07.167Z,95.10
2018-12-17T01:11:35.071Z,95.60
2018-12-17T01:14:02.997Z,95.50
2018-12-17T01:16:30.924Z,95.60
2018-12-17T01:18:58.847Z,95.90
2018-12-17T01:21:27.127Z,96.60
2018-12-17T01:23:55.093Z,96.40
2018-12-17T01:26:23.406Z,96.40
2018-12-17T01:28:51.476Z,96.30
2018-12-17T01:31:19.432Z,96.20
2018-12-17T01:33:47.339Z,96.20
2018-12-17T01:36:15.280Z,96.00
2018-12-17T01:38:43.203Z,96.00
2018-12-17T01:41:11.134Z,95.70
2018-12-17T01:43:39.090Z,95.60
2018-12-17T01:46:07.008Z,95.50
2018-12-17T01:48:34.935Z,95.30
2018-12-17T01:51:02.861Z,95.20
2018-12-17T01:53:30.792Z,95.20
2018-12-17T01:55:58.721Z,95.10
2018-12-17T01:58:29.267Z,95.10
2018-12-17T02:00:56.632Z,94.90
2018-12-17T02:03:24.582Z,94.80
2018-12-17T02:05:52.716Z,94.70
2018-12-17T02:08:20.711Z,94.60
2018-12-17T02:10:48.653Z,94.60
2018-12-17T02:13:16.660Z,94.70
2018-12-17T02:15:44.607Z,94.60
2018-12-17T02:18:12.516Z,94.60
2018-12-17T02:20:40.489Z,94.60
2018-12-17T02:23:08.397Z,94.70
2018-12-17T02:25:36.337Z,94.60
2018-12-17T02:28:04.306Z,94.70
2018-12-17T02:30:32.224Z,94.80
2018-12-17T02:33:00.160Z,94.70
2018-12-17T02:35:28.076Z,94.80
2018-12-17T02:37:56.036Z,94.60
2018-12-17T02:40:23.980Z,94.60
2018-12-17T02:42:51.974Z,94.20
2018-12-17T02:45:19.944Z,94.40
2018-12-17T02:47:47.860Z,94.40
2018-12-17T02:50:15.796Z,94.50
2018-12-17T02:52:43.725Z,94.30
2018-12-17T02:55:11.737Z,94.40
2018-12-17T02:57:39.644Z,94.20
2018-12-17T03:00:08.219Z,94.30
2018-12-17T03:02:36.203Z,94.20
2018-12-17T03:05:04.584Z,94.20
2018-12-17T03:07:32.515Z,94.20
2018-12-17T03:10:00.444Z,94.40
2018-12-17T03:12:28.375Z,94.30
2018-12-17T03:14:56.355Z,94.20
2018-12-17T03:17:24.339Z,94.20
2018-12-17T03:19:52.258Z,94.30
2018-12-17T03:22:20.181Z,94.20
2018-12-17T03:24:48.103Z,94.20
2018-12-17T03:27:16.040Z,94.20
2018-12-17T03:29:43.968Z,94.20
2018-12-17T03:32:11.911Z,94.30
2018-12-17T03:34:39.834Z,94.30
2018-12-17T03:37:07.772Z,94.30
2018-12-17T03:39:35.701Z,94.30
2018-12-17T03:42:03.652Z,94.40
2018-12-17T03:44:31.581Z,94.50
2018-12-17T03:46:59.550Z,94.70
2018-12-17T03:49:27.595Z,94.80
2018-12-17T03:51:55.544Z,94.80
2018-12-17T03:54:23.456Z,94.90
2018-12-17T03:56:51.396Z,94.90
2018-12-17T03:59:19.334Z,94.90
2018-12-17T04:01:47.262Z,94.80
2018-12-17T04:04:15.193Z,94.80
2018-12-17T04:06:43.133Z,94.80
2018-12-17T04:09:11.061Z,94.70
2018-12-17T04:11:39.006Z,94.90
2018-12-17T04:14:06.995Z,94.90
2018-12-17T04:16:34.942Z,95.10
2018-12-17T04:19:02.860Z,95.10
2018-12-17T04:21:30.971Z,95.10
2018-12-17T04:23:58.956Z,95.20
2018-12-17T04:26:26.893Z,95.20
2018-12-17T04:28:54.831Z,95.60
2018-12-17T04:31:22.882Z,95.30
2018-12-17T04:33:50.809Z,95.40
2018-12-17T04:36:18.843Z,95.40
2018-12-17T04:38:46.896Z,95.30
2018-12-17T04:41:14.834Z,95.20
2018-12-17T04:43:42.777Z,95.20
2018-12-17T04:46:10.708Z,95.00
2018-12-17T04:48:38.649Z,95.20
2018-12-17T04:51:07.454Z,95.10
2018-12-17T04:53:35.388Z,95.10
2018-12-17T04:56:03.355Z,95.20
2018-12-17T04:58:31.386Z,95.50
2018-12-17T05:00:59.317Z,95.50
2018-12-17T05:03:27.384Z,95.60
2018-12-17T05:05:55.468Z,95.70
2018-12-17T05:08:23.409Z,95.80
2018-12-17T05:10:51.378Z,96.00
2018-12-17T05:13:19.338Z,96.30
2018-12-17T05:15:47.289Z,96.50
2018-12-17T05:18:15.333Z,96.60
2018-12-17T05:20:43.299Z,96.50
2018-12-17T05:23:11.243Z,96.50
2018-12-17T05:25:39.233Z,96.40
2018-12-17T05:28:07.174Z,96.40
2018-12-17T05:30:35.111Z,96.30
2018-12-17T05:33:03.105Z,96.30
2018-12-17T05:35:31.020Z,96.40
2018-12-17T05:37:59.193Z,96.60
2018-12-17T05:40:27.120Z,96.80
2018-12-17T05:42:55.057Z,96.80
2018-12-17T05:45:22.994Z,96.70
2018-12-17T05:48:21.707Z,96.70
2018-12-17T05:50:49.649Z,96.60
2018-12-17T05:53:17.580Z,96.50
2018-12-17T05:55:45.512Z,96.30
2018-12-17T05:58:13.475Z,96.30
2018-12-17T06:00:41.541Z,96.20
2018-12-17T06:03:09.475Z,96.10
2018-12-17T06:05:37.491Z,96.10
2018-12-17T06:08:05.628Z,96.00
2018-12-17T06:10:33.595Z,96.00
2018-12-17T06:13:01.539Z,95.90
2018-12-17T06:15:29.464Z,95.90
2018-12-17T06:17:57.393Z,95.80
2018-12-17T06:20:25.316Z,95.60
2018-12-17T06:22:53.240Z,95.40
2018-12-17T06:25:21.168Z,95.30
2018-12-17T06:27:49.072Z,95.30
2018-12-17T06:30:17.011Z,95.20
2018-12-17T06:32:44.928Z,95.40
2018-12-17T06:35:12.863Z,95.60
2018-12-17T06:37:40.799Z,95.70
2018-12-17T06:40:10.372Z,95.90
2018-12-17T06:42:38.682Z,96.10
2018-12-17T06:45:06.652Z,96.00
2018-12-17T06:47:34.587Z,96.10
2018-12-17T06:50:02.585Z,95.70
2018-12-17T06:52:30.558Z,95.60
2018-12-17T06:54:58.543Z,95.80
2018-12-17T06:57:26.550Z,95.80
2018-12-17T06:59:54.524Z,95.90
2018-12-17T07:02:22.877Z,95.70
2018-12-17T07:04:51.195Z,95.70
2018-12-17T07:07:19.572Z,95.70
2018-12-17T07:09:47.778Z,95.80
2018-12-17T07:12:15.961Z,95.90
2018-12-17T07:14:44.087Z,95.70
2018-12-17T07:17:12.308Z,95.70
2018-12-17T07:19:40.896Z,95.70
2018-12-17T07:22:11.024Z,95.60
2018-12-17T07:24:39.879Z,95.80
2018-12-17T07:27:08.494Z,95.80
2018-12-17T07:29:37.050Z,95.70
2018-12-17T07:32:05.080Z,95.80
2018-12-17T07:34:33.304Z,95.80
2018-12-17T07:37:03.036Z,95.80
2018-12-17T07:39:32.113Z,95.70
2018-12-17T07:42:00.222Z,95.60
2018-12-17T07:44:28.241Z,95.60
2018-12-17T07:46:56.223Z,95.80
2018-12-17T07:49:24.337Z,95.70
2018-12-17T07:51:52.475Z,95.60
2018-12-17T07:54:22.194Z,95.20
2018-12-17T07:56:50.204Z,95.00
2018-12-17T07:59:18.391Z,95.00
2018-12-17T08:01:46.539Z,94.90
2018-12-17T08:04:14.744Z,94.70
2018-12-17T08:06:42.975Z,94.80
2018-12-17T08:09:10.979Z,94.70
2018-12-17T08:11:39.188Z,94.70
2018-12-17T08:14:07.448Z,94.70
2018-12-17T08:16:36.290Z,94.90
2018-12-17T08:19:04.346Z,94.70
2018-12-17T08:21:32.656Z,94.40
2018-12-17T08:24:00.791Z,94.30
2018-12-17T08:26:33.972Z,94.20
2018-12-17T08:29:08.405Z,94.00
2018-12-17T08:31:36.775Z,94.10
2018-12-17T08:34:04.961Z,93.90
2018-12-17T08:36:34.260Z,94.00
2018-12-17T08:39:03.851Z,94.10
2018-12-17T08:41:31.957Z,94.10
2018-12-17T08:44:01.040Z,94.10
2018-12-17T08:46:29.196Z,94.10
2018-12-17T08:48:57.328Z,93.90
2018-12-17T08:51:25.630Z,93.90
2018-12-17T08:53:54.024Z,93.80
2018-12-17T08:56:22.135Z,93.60
2018-12-17T08:58:50.397Z,93.70
2018-12-17T09:01:18.576Z,93.30
2018-12-17T09:03:47.459Z,93.10
2018-12-17T09:06:16.047Z,92.90
2018-12-17T09:08:45.622Z,92.60
2018-12-17T09:11:13.769Z,92.40
2018-12-17T09:13:41.934Z,92.30
2018-12-17T09:16:10.356Z,92.40
2018-12-17T09:18:38.350Z,92.50
2018-12-17T09:21:08.414Z,92.30
2018-12-17T09:23:37.505Z,92.80
2018-12-17T09:26:06.136Z,92.90
2018-12-17T09:28:34.421Z,93.00
2018-12-17T09:31:02.747Z,93.30
2018-12-17T09:33:31.085Z,93.40
2018-12-17T09:35:59.370Z,93.20
2018-12-17T09:38:27.387Z,93.20
2018-12-17T09:40:55.566Z,93.10
2018-12-17T09:43:23.596Z,92.70
2018-12-17T09:45:51.825Z,92.90
2018-12-17T09:48:19.853Z,92.80
2018-12-17T09:50:47.942Z,92.80
2018-12-17T09:53:16.062Z,92.90
2018-12-17T09:55:44.193Z,93.40
2018-12-17T09:58:12.544Z,93.50
2018-12-17T10:00:40.706Z,93.40
2018-12-17T10:03:08.727Z,93.30
2018-12-17T10:05:37.861Z,92.80
2018-12-17T10:08:06.222Z,92.30
2018-12-17T10:10:34.273Z,92.30
2018-12-17T10:13:03.260Z,92.10
2018-12-17T10:15:32.668Z,91.80
2018-12-17T10:18:00.794Z,91.80
2018-12-17T10:20:28.943Z,91.90
2018-12-17T10:22:57.103Z,91.80
2018-12-17T10:25:25.227Z,91.70
2018-12-17T10:27:53.425Z,91.30
2018-12-17T10:30:21.472Z,91.30
2018-12-17T10:32:49.616Z,91.30
2018-12-17T10:35:18.457Z,91.40
2018-12-17T10:37:47.416Z,91.40
2018-12-17T10:40:15.560Z,91.20
2018-12-17T10:42:43.766Z,90.90
2018-12-17T10:45:11.966Z,90.90
2018-12-17T10:47:40.166Z,91.20
2018-12-17T10:50:08.324Z,91.00
2018-12-17T10:52:38.365Z,91.10
2018-12-17T10:55:11.288Z,91.30
2018-12-17T10:57:40.569Z,91.00
2018-12-17T11:00:13.241Z,91.00
2018-12-17T11:02:41.329Z,90.70
2018-12-17T11:05:15.817Z,90.60
2018-12-17T11:07:46.823Z,90.30
2018-12-17T11:10:14.985Z,90.40
2018-12-17T11:12:43.208Z,90.70
2018-12-17T11:15:11.472Z,90.70
2018-12-17T11:17:39.643Z,90.20
2018-12-17T11:20:10.994Z,90.00
2018-12-17T11:22:39.476Z,89.70
2018-12-17T11:25:08.095Z,89.60
2018-12-17T11:27:36.416Z,89.10
2018-12-17T11:30:05.739Z,88.60
2018-12-17T11:32:42.803Z,88.80
2018-12-17T11:35:11.124Z,88.90
2018-12-17T11:37:39.973Z,89.10
2018-12-17T11:40:08.217Z,89.90
2018-12-17T11:42:37.054Z,88.60
2018-12-17T11:45:05.932Z,89.40
2018-12-17T11:47:33.969Z,88.10
2018-12-17T11:50:01.976Z,87.80
2018-12-17T11:52:30.109Z,89.70
2018-12-17T11:54:58.322Z,89.90
2018-12-17T11:57:43.236Z,89.90
2018-12-17T12:00:11.379Z,89.40
2018-12-17T12:02:39.444Z,90.50
2018-12-17T12:05:07.566Z,90.70
2018-12-17T12:07:35.810Z,90.50
2018-12-17T12:10:04.726Z,90.30
2018-12-17T12:13:04.023Z,88.80
2018-12-17T12:15:32.287Z,89.20
2018-12-17T12:18:00.393Z,89.10
2018-12-17T12:20:28.650Z,88.30
2018-12-17T12:22:56.792Z,88.40
2018-12-17T12:25:25.080Z,88.70
2018-12-17T12:27:53.191Z,88.80
2018-12-17T12:30:22.079Z,88.90
2018-12-17T12:32:50.891Z,89.50
2018-12-17T12:35:19.924Z,89.40
2018-12-17T12:37:48.542Z,90.10
2018-12-17T12:40:17.124Z,89.50
2018-12-17T12:42:51.350Z,89.80
2018-12-17T12:45:16.351Z,90.00
2018-12-17T12:47:44.749Z,90.10
2018-12-17T12:50:14.344Z,90.10
2018-12-17T12:52:42.556Z,89.70
2018-12-17T12:55:10.713Z,90.10
2018-12-17T12:57:39.254Z,90.70
2018-12-17T13:00:12.728Z,90.90
2018-12-17T13:02:41.313Z,90.70
2018-12-17T13:05:09.409Z,90.00
2018-12-17T13:07:37.972Z,88.80
2018-12-17T13:10:08.777Z,88.70
2018-12-17T13:12:38.308Z,88.40
2018-12-17T13:15:08.329Z,88.60
2018-12-17T13:17:37.425Z,90.00
2018-12-17T13:20:08.301Z,89.60
2018-12-17T13:22:37.255Z,88.50
2018-12-17T13:25:12.298Z,87.40
2018-12-17T13:27:42.946Z,87.80
2018-12-17T13:30:11.418Z,88.30
2018-12-17T13:32:41.104Z,88.20
2018-12-17T13:35:09.425Z,89.60
2018-12-17T13:37:40.001Z,89.60
2018-12-17T13:40:09.806Z,89.20
2018-12-17T13:42:39.016Z,89.00
2018-12-17T13:45:07.697Z,89.30
2018-12-17T13:47:36.069Z,89.80
2018-12-17T13:50:09.794Z,90.00
2018-12-17T13:52:43.264Z,90.10
2018-12-17T13:55:11.564Z,90.10
2018-12-17T13:57:40.300Z,90.40
2018-12-17T14:00:12.479Z,90.60
2018-12-17T14:02:40.912Z,91.00
2018-12-17T14:05:09.551Z,90.50
2018-12-17T14:07:38.570Z,90.60
2018-12-17T14:10:14.946Z,90.00
2018-12-17T14:12:45.791Z,90.10
2018-12-17T14:15:13.912Z,90.50
2018-12-17T14:17:46.791Z,90.50
2018-12-17T14:20:20.536Z,90.70
2018-12-17T14:22:48.592Z,90.80
2018-12-17T14:25:16.888Z,90.90
2018-12-17T14:27:45.121Z,90.70
2018-12-17T14:30:13.352Z,90.60
2018-12-17T14:32:42.091Z,90.70
2018-12-17T14:35:11.136Z,90.70
2018-12-17T14:37:44.664Z,90.00
2018-12-17T14:40:13.136Z,90.20
2018-12-17T14:42:43.271Z,90.40
2018-12-17T14:45:12.527Z,90.70
2018-12-17T14:47:42.027Z,90.50
2018-12-17T14:50:11.460Z,90.40
2018-12-17T14:52:39.485Z,90.20
2018-12-17T14:55:07.468Z,90.40
2018-12-17T14:57:35.475Z,90.50
2018-12-17T15:00:03.815Z,90.60
2018-12-17T15:02:31.810Z,90.80
2018-12-17T15:04:59.884Z,90.80
2018-12-17T15:07:27.872Z,90.80
2018-12-17T15:09:55.853Z,91.00
2018-12-17T15:12:24.607Z,91.40
2018-12-17T15:14:52.690Z,91.20
2018-12-17T15:17:20.672Z,91.20
2018-12-17T15:19:48.786Z,91.30
2018-12-17T15:22:16.746Z,91.40
2018-12-17T15:24:44.712Z,91.30
2018-12-17T15:27:13.618Z,91.20
2018-12-17T15:29:41.886Z,91.30
2018-12-17T15:32:09.857Z,91.50
2018-12-17T15:34:37.907Z,91.30
2018-12-17T15:37:06.786Z,91.50
2018-12-17T15:39:35.492Z,91.80
2018-12-17T15:42:05.197Z,92.30
2018-12-17T15:44:35.583Z,92.70
2018-12-17T15:47:04.279Z,93.10
2018-12-17T15:49:32.405Z,93.30
2018-12-17T15:52:06.418Z,93.60
2018-12-17T15:54:35.502Z,93.60
2018-12-17T15:57:08.290Z,93.90
2018-12-17T15:59:36.502Z,94.30
2018-12-17T16:02:04.534Z,94.60
2018-12-17T16:04:32.704Z,94.80
2018-12-17T16:07:01.575Z,94.90
2018-12-17T16:09:29.613Z,95.10
2018-12-17T16:11:57.789Z,95.40
2018-12-17T16:14:27.989Z,95.50
2018-12-17T16:16:56.557Z,95.50
2018-12-17T16:19:25.534Z,95.60
2018-12-17T16:21:54.179Z,95.60
2018-12-17T16:24:22.389Z,95.90
2018-12-17T16:26:51.177Z,95.90
2018-12-17T16:29:20.199Z,96.20
2018-12-17T16:31:49.732Z,96.20
2018-12-17T16:34:21.326Z,96.10
2018-12-17T16:36:50.059Z,96.10
2018-12-17T16:39:18.131Z,96.20
2018-12-17T16:41:47.713Z,96.20
2018-12-17T16:44:16.631Z,96.20
2018-12-17T16:46:46.743Z,96.20
2018-12-17T16:49:16.469Z,96.20
2018-12-17T16:51:46.244Z,96.30
2018-12-17T16:54:15.621Z,96.30
2018-12-17T16:56:45.841Z,96.30
2018-12-17T16:59:14.860Z,96.60
2018-12-17T17:01:43.705Z,96.60
2018-12-17T17:04:12.387Z,97.00
2018-12-17T17:06:41.664Z,96.70
2018-12-17T17:09:10.891Z,96.60
2018-12-17T17:11:39.670Z,96.60
2018-12-17T17:14:07.911Z,96.50
2018-12-17T17:16:36.664Z,96.50
2018-12-17T17:19:04.695Z,96.50
2018-12-17T17:21:32.669Z,96.40
2018-12-17T17:24:00.713Z,96.30
2018-12-17T17:26:28.645Z,96.30
2018-12-17T17:28:56.593Z,96.20
2018-12-17T17:31:24.552Z,96.20
2018-12-17T17:33:52.536Z,96.20
2018-12-17T17:36:20.549Z,96.30
2018-12-17T17:38:48.563Z,96.40
2018-12-17T17:41:16.514Z,96.60
2018-12-17T17:43:44.514Z,96.80
2018-12-17T17:46:13.193Z,96.70
2018-12-17T17:48:42.260Z,96.40
2018-12-17T17:51:10.455Z,96.40
2018-12-17T17:53:38.468Z,96.50
2018-12-17T17:56:06.540Z,96.60
2018-12-17T17:58:34.880Z,96.80
2018-12-17T18:01:03.111Z,96.70
2018-12-17T18:03:31.160Z,96.50
2018-12-17T18:06:00.449Z,96.40
2018-12-17T18:08:28.556Z,96.20
2018-12-17T18:10:56.523Z,95.90
2018-12-17T18:13:24.489Z,95.80
2018-12-17T18:15:52.449Z,95.70
2018-12-17T18:18:20.582Z,95.60
2018-12-17T18:20:49.252Z,95.70
2018-12-17T18:23:17.217Z,95.70
2018-12-17T18:25:45.187Z,95.70
2018-12-17T18:28:13.464Z,95.60
2018-12-17T18:30:41.990Z,95.70
2018-12-17T18:33:10.019Z,95.70
2018-12-17T18:35:37.956Z,95.80
2018-12-17T18:38:05.943Z,95.90
2018-12-17T18:40:33.960Z,95.90
2018-12-17T18:43:01.924Z,95.80
2018-12-17T18:45:29.917Z,95.90
2018-12-17T18:47:57.917Z,96.00
2018-12-17T18:50:25.864Z,95.60
2018-12-17T18:52:53.834Z,96.10
2018-12-17T18:55:21.920Z,95.70
2018-12-17T18:57:49.871Z,95.80
2018-12-17T19:00:18.175Z,95.70
2018-12-17T19:02:46.268Z,95.60
2018-12-17T19:05:14.216Z,95.50
2018-12-17T19:07:42.647Z,95.60
2018-12-17T19:10:10.776Z,95.80
2018-12-17T19:12:38.718Z,96.10
2018-12-17T19:15:06.666Z,96.30
2018-12-17T19:17:34.638Z,96.50
2018-12-17T19:20:02.664Z,96.60
2018-12-17T19:22:30.641Z,96.30
2018-12-17T19:24:58.598Z,96.20
2018-12-17T19:27:26.645Z,96.40
2018-12-17T19:29:54.596Z,96.50
2018-12-17T19:32:22.539Z,96.80
2018-12-17T19:34:50.570Z,97.00
2018-12-17T19:37:18.551Z,97.10
2018-12-17T19:39:46.483Z,97.20
2018-12-17T19:42:14.415Z,97.40
2018-12-17T19:44:42.491Z,97.60
2018-12-17T19:47:10.474Z,97.70
2018-12-17T19:49:38.464Z,97.60
2018-12-17T19:52:06.427Z,97.50
2018-12-17T19:54:34.442Z,97.30
2018-12-17T19:57:02.451Z,97.10
2018-12-17T19:59:30.396Z,97.10
2018-12-17T20:01:58.351Z,97.10
2018-12-17T20:04:26.372Z,97.10
2018-12-17T20:06:54.315Z,97.10
2018-12-17T20:09:22.264Z,97.20
2018-12-17T20:11:50.217Z,97.30
2018-12-17T20:14:18.167Z,97.30
2018-12-17T20:16:46.187Z,97.50
2018-12-17T20:19:14.232Z,97.70
2018-12-17T20:21:42.316Z,97.70
2018-12-17T20:24:10.269Z,97.70
2018-12-17T20:26:38.206Z,97.80
2018-12-17T20:29:06.167Z,97.80
2018-12-17T20:31:34.120Z,97.60
2018-12-17T20:34:02.067Z,97.50
2018-12-17T20:36:30.118Z,97.60
2018-12-17T20:38:58.092Z,97.50
2018-12-17T20:41:26.210Z,97.40
2018-12-17T20:43:54.174Z,97.40
2018-12-17T20:46:22.208Z,97.40
2018-12-17T20:48:50.205Z,97.30
2018-12-17T20:51:18.144Z,97.30
2018-12-17T20:53:46.103Z,97.40
2018-12-17T20:56:14.091Z,97.60
2018-12-17T20:58:42.167Z,97.70
2018-12-17T21:01:10.127Z,97.70
2018-12-17T21:03:38.121Z,97.60
2018-12-17T21:06:06.158Z,97.60
2018-12-17T21:08:34.135Z,97.60
2018-12-17T21:11:02.140Z,97.70
2018-12-17T21:13:30.103Z,97.80
2018-12-17T21:15:58.079Z,98.00
2018-12-17T21:18:26.055Z,98.20
2018-12-17T21:20:54.060Z,98.50
2018-12-17T21:23:22.397Z,98.30
2018-12-17T21:25:50.374Z,98.30
2018-12-17T21:28:18.328Z,98.40
2018-12-17T21:30:46.308Z,98.40
2018-12-17T21:33:14.287Z,98.40
2018-12-17T21:35:43.144Z,98.60
2018-12-17T21:38:11.792Z,98.30
2018-12-17T21:40:39.773Z,98.20
2018-12-17T21:43:07.938Z,98.20
2018-12-17T21:45:36.117Z,98.00
2018-12-17T21:48:04.140Z,98.00
2018-12-17T21:50:32.181Z,98.10
2018-12-17T21:53:00.174Z,98.10
2018-12-17T21:55:28.136Z,98.00
2018-12-17T21:57:56.096Z,98.00
2018-12-17T22:00:24.027Z,98.00
2018-12-17T22:02:51.962Z,98.10
2018-12-17T22:05:19.909Z,98.10
2018-12-17T22:07:47.866Z,98.00
2018-12-17T22:10:20.284Z,98.10
2018-12-17T22:12:48.224Z,98.20
2018-12-17T22:15:16.195Z,98.60
2018-12-17T22:17:44.879Z,98.40
2018-12-17T22:20:13.028Z,98.60
2018-12-17T22:22:41.539Z,98.60
2018-12-17T22:25:09.533Z,98.60
2018-12-17T22:27:37.459Z,98.70
2018-12-17T22:30:05.712Z,98.90
2018-12-17T22:32:33.696Z,99.00
2018-12-17T22:35:01.741Z,99.00
2018-12-17T22:37:29.752Z,99.00
2018-12-17T22:39:57.720Z,99.00
2018-12-17T22:42:25.657Z,98.90
2018-12-17T22:44:53.601Z,99.00
2018-12-17T22:47:21.531Z,98.80
2018-12-17T22:49:49.465Z,98.70
2018-12-17T22:52:17.424Z,98.60
2018-12-17T22:54:45.601Z,98.50
2018-12-17T22:57:13.569Z,98.50
2018-12-17T22:59:41.750Z,98.50
2018-12-17T23:02:09.732Z,98.50
2018-12-17T23:04:37.716Z,98.50
2018-12-17T23:07:05.664Z,98.40
2018-12-17T23:09:44.683Z,98.40
2018-12-17T23:12:25.063Z,98.30
2018-12-17T23:15:04.074Z,98.30
2018-12-17T23:17:39.278Z,98.30
2018-12-17T23:20:08.030Z,98.30
2018-12-17T23:22:36.336Z,98.10
2018-12-17T23:25:04.329Z,98.10
2018-12-17T23:27:32.291Z,98.00
2018-12-17T23:30:00.407Z,98.00
2018-12-17T23:32:34.485Z,97.90
2018-12-17T23:35:02.536Z,97.90
2018-12-17T23:37:30.552Z,98.00
2018-12-17T23:39:58.529Z,98.00
2018-12-17T23:42:28.019Z,98.10
2018-12-17T23:44:56.649Z,98.10
2018-12-17T23:47:24.596Z,98.00
2018-12-17T23:49:52.536Z,98.10
2018-12-17T23:52:20.516Z,98.20
2018-12-17T23:54:48.489Z,98.30
2018-12-17T23:57:16.462Z,98.50
2018-12-17T23:59:44.423Z,98.40
